sensor_id;sensor_type;location;lat;lon;timestamp;temperature;humidity
1806;DHT22;901;48.142;11.516;2022-09-09T00:02:08;16.50;99.90
1806;DHT22;901;48.142;11.516;2022-09-09T00:04:39;16.50;99.90
1806;DHT22;901;48.142;11.516;2022-09-09T00:07:15;16.50;99.90
1806;DHT22;901;48.142;11.516;2022-09-09T00:09:47;16.50;99.90
1806;DHT22;901;48.142;11.516;2022-09-09T00:12:19;16.40;99.90
1806;DHT22;901;48.142;11.516;2022-09-09T00:14:53;16.40;99.90
1806;DHT22;901;48.142;11.516;2022-09-09T00:17:31;16.40;99.90
1806;DHT22;901;48.142;11.516;2022-09-09T00:20:05;16.40;99.90
1806;DHT22;901;48.142;11.516;2022-09-09T00:22:40;16.40;99.90
1806;DHT22;901;48.142;11.516;2022-09-09T00:25:11;16.40;99.90
1806;DHT22;901;48.142;11.516;2022-09-09T00:27:41;16.40;99.90
1806;DHT22;901;48.142;11.516;2022-09-09T00:30:16;16.40;99.90
1806;DHT22;901;48.142;11.516;2022-09-09T00:32:45;16.40;99.90
1806;DHT22;901;48.142;11.516;2022-09-09T00:35:18;16.40;99.90
1806;DHT22;901;48.142;11.516;2022-09-09T00:37:46;16.40;99.90
1806;DHT22;901;48.142;11.516;2022-09-09T00:40:24;16.40;99.90
1806;DHT22;901;48.142;11.516;2022-09-09T00:43:10;16.40;99.90
1806;DHT22;901;48.142;11.516;2022-09-09T00:46:10;16.40;99.90
1806;DHT22;901;48.142;11.516;2022-09-09T00:48:47;16.30;99.90
1806;DHT22;901;48.142;11.516;2022-09-09T00:51:26;16.30;99.90
1806;DHT22;901;48.142;11.516;2022-09-09T00:54:06;16.30;99.90
1806;DHT22;901;48.142;11.516;2022-09-09T00:56:38;16.20;99.90
1806;DHT22;901;48.142;11.516;2022-09-09T00:59:20;16.20;99.90
1806;DHT22;901;48.142;11.516;2022-09-09T01:01:49;16.10;99.90
1806;DHT22;901;48.142;11.516;2022-09-09T01:04:20;16.00;99.90
1806;DHT22;901;48.142;11.516;2022-09-09T01:06:54;16.00;99.90
1806;DHT22;901;48.142;11.516;2022-09-09T01:09:27;16.00;99.90
1806;DHT22;901;48.142;11.516;2022-09-09T01:12:02;15.90;99.90
1806;DHT22;901;48.142;11.516;2022-09-09T01:14:40;15.80;99.90
1806;DHT22;901;48.142;11.516;2022-09-09T01:17:13;15.80;99.90
1806;DHT22;901;48.142;11.516;2022-09-09T01:19:55;15.80;99.90
1806;DHT22;901;48.142;11.516;2022-09-09T01:22:36;15.80;99.90
1806;DHT22;901;48.142;11.516;2022-09-09T01:25:27;15.90;99.90
1806;DHT22;901;48.142;11.516;2022-09-09T01:27:58;15.90;99.90
1806;DHT22;901;48.142;11.516;2022-09-09T01:30:26;15.90;99.90
1806;DHT22;901;48.142;11.516;2022-09-09T01:32:56;15.90;99.90
1806;DHT22;901;48.142;11.516;2022-09-09T01:35:34;15.90;99.90
1806;DHT22;901;48.142;11.516;2022-09-09T01:38:04;15.90;99.90
1806;DHT22;901;48.142;11.516;2022-09-09T01:40:31;16.00;99.90
1806;DHT22;901;48.142;11.516;2022-09-09T01:43:00;16.00;99.90
1806;DHT22;901;48.142;11.516;2022-09-09T01:45:27;15.90;99.90
1806;DHT22;901;48.142;11.516;2022-09-09T01:47:55;15.90;99.90
1806;DHT22;901;48.142;11.516;2022-09-09T01:50:22;15.90;99.90
1806;DHT22;901;48.142;11.516;2022-09-09T01:52:54;15.90;99.90
1806;DHT22;901;48.142;11.516;2022-09-09T01:55:29;15.80;99.90
1806;DHT22;901;48.142;11.516;2022-09-09T01:58:06;15.80;99.90
1806;DHT22;901;48.142;11.516;2022-09-09T02:00:41;15.80;99.90
1806;DHT22;901;48.142;11.516;2022-09-09T02:03:17;15.80;99.90
1806;DHT22;901;48.142;11.516;2022-09-09T02:05:51;15.70;99.90
1806;DHT22;901;48.142;11.516;2022-09-09T02:08:23;15.70;99.90
1806;DHT22;901;48.142;11.516;2022-09-09T02:10:56;15.70;99.90
1806;DHT22;901;48.142;11.516;2022-09-09T02:13:28;15.70;99.90
1806;DHT22;901;48.142;11.516;2022-09-09T02:15:59;15.70;99.90
1806;DHT22;901;48.142;11.516;2022-09-09T02:18:29;15.60;99.90
1806;DHT22;901;48.142;11.516;2022-09-09T02:20:58;15.60;99.90
1806;DHT22;901;48.142;11.516;2022-09-09T02:23:26;15.70;99.90
1806;DHT22;901;48.142;11.516;2022-09-09T02:25:56;15.60;99.90
1806;DHT22;901;48.142;11.516;2022-09-09T02:28:27;15.60;99.90
1806;DHT22;901;48.142;11.516;2022-09-09T02:30:56;15.60;99.90
1806;DHT22;901;48.142;11.516;2022-09-09T02:33:26;15.60;99.90
1806;DHT22;901;48.142;11.516;2022-09-09T02:35:55;15.60;99.90
1806;DHT22;901;48.142;11.516;2022-09-09T02:38:29;15.70;99.90
1806;DHT22;901;48.142;11.516;2022-09-09T02:40:57;15.70;99.90
1806;DHT22;901;48.142;11.516;2022-09-09T02:43:24;15.70;99.90
1806;DHT22;901;48.142;11.516;2022-09-09T02:46:03;15.70;99.90
1806;DHT22;901;48.142;11.516;2022-09-09T02:48:39;15.70;99.90
1806;DHT22;901;48.142;11.516;2022-09-09T02:51:17;15.70;99.90
1806;DHT22;901;48.142;11.516;2022-09-09T02:53:49;15.60;99.90
1806;DHT22;901;48.142;11.516;2022-09-09T02:56:19;15.60;99.90
1806;DHT22;901;48.142;11.516;2022-09-09T02:58:47;15.60;99.90
1806;DHT22;901;48.142;11.516;2022-09-09T03:01:18;15.60;99.90
1806;DHT22;901;48.142;11.516;2022-09-09T03:03:45;15.60;99.90
1806;DHT22;901;48.142;11.516;2022-09-09T03:06:12;15.60;99.90
1806;DHT22;901;48.142;11.516;2022-09-09T03:08:40;15.60;99.90
1806;DHT22;901;48.142;11.516;2022-09-09T03:11:07;15.60;99.90
1806;DHT22;901;48.142;11.516;2022-09-09T03:13:35;15.60;99.90
1806;DHT22;901;48.142;11.516;2022-09-09T03:16:03;15.60;99.90
1806;DHT22;901;48.142;11.516;2022-09-09T03:18:32;15.60;99.90
1806;DHT22;901;48.142;11.516;2022-09-09T03:21:00;15.60;99.90
1806;DHT22;901;48.142;11.516;2022-09-09T03:23:26;15.60;99.90
1806;DHT22;901;48.142;11.516;2022-09-09T03:25:53;15.60;99.90
1806;DHT22;901;48.142;11.516;2022-09-09T03:28:22;15.60;99.90
1806;DHT22;901;48.142;11.516;2022-09-09T03:30:58;15.60;99.90
1806;DHT22;901;48.142;11.516;2022-09-09T03:33:25;15.60;99.90
1806;DHT22;901;48.142;11.516;2022-09-09T03:35:53;15.60;99.90
1806;DHT22;901;48.142;11.516;2022-09-09T03:38:22;15.50;99.90
1806;DHT22;901;48.142;11.516;2022-09-09T03:40:50;15.60;99.90
1806;DHT22;901;48.142;11.516;2022-09-09T03:43:20;15.60;99.90
1806;DHT22;901;48.142;11.516;2022-09-09T03:45:48;15.60;99.90
1806;DHT22;901;48.142;11.516;2022-09-09T03:48:15;15.60;99.90
1806;DHT22;901;48.142;11.516;2022-09-09T03:50:44;15.60;99.90
1806;DHT22;901;48.142;11.516;2022-09-09T03:53:14;15.70;99.90
1806;DHT22;901;48.142;11.516;2022-09-09T03:55:43;15.70;99.90
1806;DHT22;901;48.142;11.516;2022-09-09T03:58:11;15.70;99.90
1806;DHT22;901;48.142;11.516;2022-09-09T04:00:38;15.70;99.90
1806;DHT22;901;48.142;11.516;2022-09-09T04:03:08;15.80;99.90
1806;DHT22;901;48.142;11.516;2022-09-09T04:05:35;15.80;99.90
1806;DHT22;901;48.142;11.516;2022-09-09T04:08:05;15.90;99.90
1806;DHT22;901;48.142;11.516;2022-09-09T04:10:33;15.90;99.90
1806;DHT22;901;48.142;11.516;2022-09-09T04:13:02;16.00;99.90
1806;DHT22;901;48.142;11.516;2022-09-09T04:15:29;16.00;99.90
1806;DHT22;901;48.142;11.516;2022-09-09T04:17:56;16.00;99.90
1806;DHT22;901;48.142;11.516;2022-09-09T04:20:23;16.00;99.90
1806;DHT22;901;48.142;11.516;2022-09-09T04:22:50;16.00;99.90
1806;DHT22;901;48.142;11.516;2022-09-09T04:25:17;16.10;99.90
1806;DHT22;901;48.142;11.516;2022-09-09T04:27:45;16.10;99.90
1806;DHT22;901;48.142;11.516;2022-09-09T04:30:13;16.00;99.90
1806;DHT22;901;48.142;11.516;2022-09-09T04:32:39;16.00;99.90
1806;DHT22;901;48.142;11.516;2022-09-09T04:35:07;16.00;99.90
1806;DHT22;901;48.142;11.516;2022-09-09T04:37:37;15.90;99.90
1806;DHT22;901;48.142;11.516;2022-09-09T04:40:04;15.90;99.90
1806;DHT22;901;48.142;11.516;2022-09-09T04:42:34;15.90;99.90
1806;DHT22;901;48.142;11.516;2022-09-09T04:45:03;15.80;99.90
1806;DHT22;901;48.142;11.516;2022-09-09T04:47:30;15.60;99.90
1806;DHT22;901;48.142;11.516;2022-09-09T04:49:57;15.60;99.90
1806;DHT22;901;48.142;11.516;2022-09-09T04:52:24;15.60;99.90
1806;DHT22;901;48.142;11.516;2022-09-09T04:54:51;15.50;99.90
1806;DHT22;901;48.142;11.516;2022-09-09T04:57:19;15.50;99.90
1806;DHT22;901;48.142;11.516;2022-09-09T04:59:46;15.50;99.90
1806;DHT22;901;48.142;11.516;2022-09-09T05:02:14;15.40;99.90
1806;DHT22;901;48.142;11.516;2022-09-09T05:04:41;15.40;99.90
1806;DHT22;901;48.142;11.516;2022-09-09T05:07:08;15.40;99.90
1806;DHT22;901;48.142;11.516;2022-09-09T05:09:35;15.50;99.90
1806;DHT22;901;48.142;11.516;2022-09-09T05:12:02;15.50;99.90
1806;DHT22;901;48.142;11.516;2022-09-09T05:14:29;15.50;99.90
1806;DHT22;901;48.142;11.516;2022-09-09T05:16:56;15.50;99.90
1806;DHT22;901;48.142;11.516;2022-09-09T05:19:24;15.60;99.90
1806;DHT22;901;48.142;11.516;2022-09-09T05:21:51;15.60;99.90
1806;DHT22;901;48.142;11.516;2022-09-09T05:24:18;15.60;99.90
1806;DHT22;901;48.142;11.516;2022-09-09T05:26:45;15.60;99.90
1806;DHT22;901;48.142;11.516;2022-09-09T05:29:12;15.60;99.90
1806;DHT22;901;48.142;11.516;2022-09-09T05:31:38;15.60;99.90
1806;DHT22;901;48.142;11.516;2022-09-09T05:34:06;15.60;99.90
1806;DHT22;901;48.142;11.516;2022-09-09T05:36:34;15.70;99.90
1806;DHT22;901;48.142;11.516;2022-09-09T05:39:01;15.80;99.90
1806;DHT22;901;48.142;11.516;2022-09-09T05:41:28;15.80;99.90
1806;DHT22;901;48.142;11.516;2022-09-09T05:43:55;16.00;99.90
1806;DHT22;901;48.142;11.516;2022-09-09T05:46:24;16.00;99.90
1806;DHT22;901;48.142;11.516;2022-09-09T05:48:52;16.10;99.90
1806;DHT22;901;48.142;11.516;2022-09-09T05:51:20;16.20;99.90
1806;DHT22;901;48.142;11.516;2022-09-09T05:53:49;16.20;99.90
1806;DHT22;901;48.142;11.516;2022-09-09T05:56:17;16.30;99.90
1806;DHT22;901;48.142;11.516;2022-09-09T05:58:45;16.40;99.90
1806;DHT22;901;48.142;11.516;2022-09-09T06:01:14;16.50;99.90
1806;DHT22;901;48.142;11.516;2022-09-09T06:03:43;16.50;99.90
1806;DHT22;901;48.142;11.516;2022-09-09T06:06:12;16.70;99.90
1806;DHT22;901;48.142;11.516;2022-09-09T06:08:41;16.80;99.90
1806;DHT22;901;48.142;11.516;2022-09-09T06:11:12;16.80;99.90
1806;DHT22;901;48.142;11.516;2022-09-09T06:13:39;16.80;99.90
1806;DHT22;901;48.142;11.516;2022-09-09T06:16:08;16.90;99.90
1806;DHT22;901;48.142;11.516;2022-09-09T06:18:36;17.00;99.90
1806;DHT22;901;48.142;11.516;2022-09-09T06:21:05;17.10;99.90
1806;DHT22;901;48.142;11.516;2022-09-09T06:23:32;17.10;99.90
1806;DHT22;901;48.142;11.516;2022-09-09T06:26:04;17.10;99.90
1806;DHT22;901;48.142;11.516;2022-09-09T06:28:34;17.20;99.90
1806;DHT22;901;48.142;11.516;2022-09-09T06:31:03;17.30;99.90
1806;DHT22;901;48.142;11.516;2022-09-09T06:33:33;17.30;99.90
1806;DHT22;901;48.142;11.516;2022-09-09T06:36:02;17.30;99.90
1806;DHT22;901;48.142;11.516;2022-09-09T06:38:30;17.30;99.90
1806;DHT22;901;48.142;11.516;2022-09-09T06:40:58;17.40;99.90
1806;DHT22;901;48.142;11.516;2022-09-09T06:43:26;17.50;99.90
1806;DHT22;901;48.142;11.516;2022-09-09T06:45:55;17.50;99.90
1806;DHT22;901;48.142;11.516;2022-09-09T06:48:22;17.60;99.90
1806;DHT22;901;48.142;11.516;2022-09-09T06:50:49;17.60;99.90
1806;DHT22;901;48.142;11.516;2022-09-09T06:53:17;17.70;99.90
1806;DHT22;901;48.142;11.516;2022-09-09T06:55:45;17.80;99.90
1806;DHT22;901;48.142;11.516;2022-09-09T06:58:12;17.90;99.90
1806;DHT22;901;48.142;11.516;2022-09-09T07:00:39;18.00;99.90
1806;DHT22;901;48.142;11.516;2022-09-09T07:03:07;18.00;99.90
1806;DHT22;901;48.142;11.516;2022-09-09T07:05:34;18.10;99.90
1806;DHT22;901;48.142;11.516;2022-09-09T07:08:01;18.20;99.90
1806;DHT22;901;48.142;11.516;2022-09-09T07:10:29;18.10;99.90
1806;DHT22;901;48.142;11.516;2022-09-09T07:12:56;18.20;99.90
1806;DHT22;901;48.142;11.516;2022-09-09T07:15:23;18.20;99.90
1806;DHT22;901;48.142;11.516;2022-09-09T07:17:50;18.20;99.90
1806;DHT22;901;48.142;11.516;2022-09-09T07:20:19;17.90;99.90
1806;DHT22;901;48.142;11.516;2022-09-09T07:22:46;17.60;99.90
1806;DHT22;901;48.142;11.516;2022-09-09T07:25:13;17.60;99.90
1806;DHT22;901;48.142;11.516;2022-09-09T07:27:43;17.70;99.90
1806;DHT22;901;48.142;11.516;2022-09-09T07:30:11;17.80;99.90
1806;DHT22;901;48.142;11.516;2022-09-09T07:32:38;17.90;99.90
1806;DHT22;901;48.142;11.516;2022-09-09T07:35:06;18.10;99.90
1806;DHT22;901;48.142;11.516;2022-09-09T07:37:36;18.30;99.90
1806;DHT22;901;48.142;11.516;2022-09-09T07:40:04;18.50;99.90
1806;DHT22;901;48.142;11.516;2022-09-09T07:42:31;18.70;99.90
1806;DHT22;901;48.142;11.516;2022-09-09T07:44:59;18.90;99.90
1806;DHT22;901;48.142;11.516;2022-09-09T07:47:25;19.10;99.90
1806;DHT22;901;48.142;11.516;2022-09-09T07:49:52;19.20;99.90
1806;DHT22;901;48.142;11.516;2022-09-09T07:52:20;19.40;99.90
1806;DHT22;901;48.142;11.516;2022-09-09T07:54:48;19.50;99.90
1806;DHT22;901;48.142;11.516;2022-09-09T07:57:15;19.60;99.90
1806;DHT22;901;48.142;11.516;2022-09-09T07:59:42;19.60;99.90
1806;DHT22;901;48.142;11.516;2022-09-09T08:02:09;19.70;99.90
1806;DHT22;901;48.142;11.516;2022-09-09T08:04:36;19.80;99.90
1806;DHT22;901;48.142;11.516;2022-09-09T08:07:03;19.90;99.90
1806;DHT22;901;48.142;11.516;2022-09-09T08:09:30;20.10;99.90
1806;DHT22;901;48.142;11.516;2022-09-09T08:12:00;20.30;99.90
1806;DHT22;901;48.142;11.516;2022-09-09T08:14:28;20.50;99.90
1806;DHT22;901;48.142;11.516;2022-09-09T08:16:55;20.60;99.90
1806;DHT22;901;48.142;11.516;2022-09-09T08:19:22;20.70;99.90
1806;DHT22;901;48.142;11.516;2022-09-09T08:21:49;20.70;99.90
1806;DHT22;901;48.142;11.516;2022-09-09T08:24:16;20.80;99.90
1806;DHT22;901;48.142;11.516;2022-09-09T08:26:46;20.70;99.90
1806;DHT22;901;48.142;11.516;2022-09-09T08:29:16;20.70;99.90
1806;DHT22;901;48.142;11.516;2022-09-09T08:31:45;20.70;99.90
1806;DHT22;901;48.142;11.516;2022-09-09T08:34:12;20.90;99.90
1806;DHT22;901;48.142;11.516;2022-09-09T08:36:41;21.00;99.90
1806;DHT22;901;48.142;11.516;2022-09-09T08:39:09;21.00;99.90
1806;DHT22;901;48.142;11.516;2022-09-09T08:41:57;20.90;99.90
1806;DHT22;901;48.142;11.516;2022-09-09T08:44:37;20.60;99.90
1806;DHT22;901;48.142;11.516;2022-09-09T08:47:10;20.50;99.90
1806;DHT22;901;48.142;11.516;2022-09-09T08:50:05;20.30;99.90
1806;DHT22;901;48.142;11.516;2022-09-09T08:52:39;20.20;99.90
1806;DHT22;901;48.142;11.516;2022-09-09T08:55:19;20.20;99.90
1806;DHT22;901;48.142;11.516;2022-09-09T08:57:49;20.10;99.90
1806;DHT22;901;48.142;11.516;2022-09-09T09:00:18;20.20;99.90
1806;DHT22;901;48.142;11.516;2022-09-09T09:02:49;20.30;99.90
1806;DHT22;901;48.142;11.516;2022-09-09T09:05:28;20.40;99.90
1806;DHT22;901;48.142;11.516;2022-09-09T09:08:04;20.60;99.90
1806;DHT22;901;48.142;11.516;2022-09-09T09:10:44;20.80;99.90
1806;DHT22;901;48.142;11.516;2022-09-09T09:13:18;21.00;99.90
1806;DHT22;901;48.142;11.516;2022-09-09T09:15:51;21.10;99.90
1806;DHT22;901;48.142;11.516;2022-09-09T09:18:19;21.30;99.90
1806;DHT22;901;48.142;11.516;2022-09-09T09:20:52;21.40;99.90
1806;DHT22;901;48.142;11.516;2022-09-09T09:23:24;21.40;99.90
1806;DHT22;901;48.142;11.516;2022-09-09T09:25:55;21.40;99.90
1806;DHT22;901;48.142;11.516;2022-09-09T09:28:25;21.50;99.90
1806;DHT22;901;48.142;11.516;2022-09-09T09:30:56;21.60;99.90
1806;DHT22;901;48.142;11.516;2022-09-09T09:33:30;21.80;99.90
1806;DHT22;901;48.142;11.516;2022-09-09T09:35:59;22.10;99.90
1806;DHT22;901;48.142;11.516;2022-09-09T09:38:27;22.20;99.90
1806;DHT22;901;48.142;11.516;2022-09-09T09:40:56;22.40;99.90
1806;DHT22;901;48.142;11.516;2022-09-09T09:43:26;22.50;99.90
1806;DHT22;901;48.142;11.516;2022-09-09T09:45:56;22.50;99.90
1806;DHT22;901;48.142;11.516;2022-09-09T09:48:25;22.60;99.90
1806;DHT22;901;48.142;11.516;2022-09-09T09:50:53;22.50;99.90
1806;DHT22;901;48.142;11.516;2022-09-09T09:53:24;22.40;99.90
1806;DHT22;901;48.142;11.516;2022-09-09T09:55:55;22.30;99.90
1806;DHT22;901;48.142;11.516;2022-09-09T09:58:26;22.20;99.90
1806;DHT22;901;48.142;11.516;2022-09-09T10:00:55;22.10;99.90
1806;DHT22;901;48.142;11.516;2022-09-09T10:03:24;21.90;99.90
1806;DHT22;901;48.142;11.516;2022-09-09T10:05:52;21.80;99.90
1806;DHT22;901;48.142;11.516;2022-09-09T10:08:20;21.70;99.90
1806;DHT22;901;48.142;11.516;2022-09-09T10:10:57;21.50;99.90
1806;DHT22;901;48.142;11.516;2022-09-09T10:13:31;21.50;99.90
1806;DHT22;901;48.142;11.516;2022-09-09T10:16:13;21.40;99.90
1806;DHT22;901;48.142;11.516;2022-09-09T10:18:57;21.30;99.90
1806;DHT22;901;48.142;11.516;2022-09-09T10:24:43;21.30;99.90
1806;DHT22;901;48.142;11.516;2022-09-09T10:27:20;21.30;99.90
1806;DHT22;901;48.142;11.516;2022-09-09T10:32:46;21.60;99.90
1806;DHT22;901;48.142;11.516;2022-09-09T10:35:29;21.60;99.90
1806;DHT22;901;48.142;11.516;2022-09-09T10:38:17;21.70;99.90
1806;DHT22;901;48.142;11.516;2022-09-09T10:41:18;21.90;99.90
1806;DHT22;901;48.142;11.516;2022-09-09T10:43:56;22.10;99.90
1806;DHT22;901;48.142;11.516;2022-09-09T10:46:38;22.20;99.90
1806;DHT22;901;48.142;11.516;2022-09-09T10:49:21;22.50;99.90
1806;DHT22;901;48.142;11.516;2022-09-09T10:51:57;22.60;99.90
1806;DHT22;901;48.142;11.516;2022-09-09T10:54:41;22.80;99.90
1806;DHT22;901;48.142;11.516;2022-09-09T10:57:17;22.90;99.90
1806;DHT22;901;48.142;11.516;2022-09-09T10:59:52;23.00;99.90
1806;DHT22;901;48.142;11.516;2022-09-09T11:02:26;23.10;99.90
1806;DHT22;901;48.142;11.516;2022-09-09T11:04:57;23.20;99.90
1806;DHT22;901;48.142;11.516;2022-09-09T11:07:33;23.60;99.90
1806;DHT22;901;48.142;11.516;2022-09-09T11:10:06;23.70;99.90
1806;DHT22;901;48.142;11.516;2022-09-09T11:12:36;23.90;99.90
1806;DHT22;901;48.142;11.516;2022-09-09T11:15:06;24.10;99.90
1806;DHT22;901;48.142;11.516;2022-09-09T11:17:40;24.20;99.90
1806;DHT22;901;48.142;11.516;2022-09-09T11:20:13;24.40;99.90
1806;DHT22;901;48.142;11.516;2022-09-09T11:22:45;24.50;99.90
1806;DHT22;901;48.142;11.516;2022-09-09T11:25:16;24.80;99.90
1806;DHT22;901;48.142;11.516;2022-09-09T11:27:53;24.80;99.90
1806;DHT22;901;48.142;11.516;2022-09-09T11:30:23;24.80;99.90
1806;DHT22;901;48.142;11.516;2022-09-09T11:33:09;24.60;99.90
1806;DHT22;901;48.142;11.516;2022-09-09T11:35:53;24.90;99.90
1806;DHT22;901;48.142;11.516;2022-09-09T11:38:26;25.10;99.90
1806;DHT22;901;48.142;11.516;2022-09-09T11:40:56;25.10;99.90
1806;DHT22;901;48.142;11.516;2022-09-09T11:43:28;25.40;99.90
1806;DHT22;901;48.142;11.516;2022-09-09T11:45:58;25.20;99.90
1806;DHT22;901;48.142;11.516;2022-09-09T11:48:31;25.30;99.90
1806;DHT22;901;48.142;11.516;2022-09-09T11:51:03;25.10;99.90
1806;DHT22;901;48.142;11.516;2022-09-09T11:53:31;24.80;99.90
1806;DHT22;901;48.142;11.516;2022-09-09T11:56:04;24.80;99.90
1806;DHT22;901;48.142;11.516;2022-09-09T11:58:37;24.60;99.90
1806;DHT22;901;48.142;11.516;2022-09-09T12:01:29;24.50;99.90
1806;DHT22;901;48.142;11.516;2022-09-09T12:04:17;24.40;99.90
1806;DHT22;901;48.142;11.516;2022-09-09T12:06:50;24.10;99.90
1806;DHT22;901;48.142;11.516;2022-09-09T12:09:25;23.70;99.90
1806;DHT22;901;48.142;11.516;2022-09-09T12:12:06;23.80;99.90
1806;DHT22;901;48.142;11.516;2022-09-09T12:14:38;23.90;99.90
1806;DHT22;901;48.142;11.516;2022-09-09T12:17:16;23.90;99.90
1806;DHT22;901;48.142;11.516;2022-09-09T12:19:44;24.10;99.90
1806;DHT22;901;48.142;11.516;2022-09-09T12:22:22;24.40;99.90
1806;DHT22;901;48.142;11.516;2022-09-09T12:24:58;24.60;99.90
1806;DHT22;901;48.142;11.516;2022-09-09T12:27:35;24.90;99.90
1806;DHT22;901;48.142;11.516;2022-09-09T12:30:07;25.00;99.90
1806;DHT22;901;48.142;11.516;2022-09-09T12:32:36;25.20;99.90
1806;DHT22;901;48.142;11.516;2022-09-09T12:35:10;25.10;99.90
1806;DHT22;901;48.142;11.516;2022-09-09T12:37:41;25.30;99.90
1806;DHT22;901;48.142;11.516;2022-09-09T12:40:20;25.30;99.90
1806;DHT22;901;48.142;11.516;2022-09-09T12:42:48;25.40;99.90
1806;DHT22;901;48.142;11.516;2022-09-09T12:45:17;25.50;99.90
1806;DHT22;901;48.142;11.516;2022-09-09T12:47:47;25.50;99.90
1806;DHT22;901;48.142;11.516;2022-09-09T12:50:18;25.60;99.90
1806;DHT22;901;48.142;11.516;2022-09-09T12:52:48;25.60;99.90
1806;DHT22;901;48.142;11.516;2022-09-09T12:55:19;25.50;99.90
1806;DHT22;901;48.142;11.516;2022-09-09T12:57:48;25.30;99.90
1806;DHT22;901;48.142;11.516;2022-09-09T13:00:18;25.30;99.90
1806;DHT22;901;48.142;11.516;2022-09-09T13:02:51;25.20;99.90
1806;DHT22;901;48.142;11.516;2022-09-09T13:05:21;25.00;99.90
1806;DHT22;901;48.142;11.516;2022-09-09T13:07:49;24.80;99.90
1806;DHT22;901;48.142;11.516;2022-09-09T13:10:23;24.50;99.90
1806;DHT22;901;48.142;11.516;2022-09-09T13:12:52;24.50;99.90
1806;DHT22;901;48.142;11.516;2022-09-09T13:15:21;24.50;99.90
1806;DHT22;901;48.142;11.516;2022-09-09T13:17:51;24.50;99.90
1806;DHT22;901;48.142;11.516;2022-09-09T13:20:19;24.60;99.90
1806;DHT22;901;48.142;11.516;2022-09-09T13:22:49;24.70;99.90
1806;DHT22;901;48.142;11.516;2022-09-09T13:25:23;24.80;99.90
1806;DHT22;901;48.142;11.516;2022-09-09T13:27:56;25.10;99.90
1806;DHT22;901;48.142;11.516;2022-09-09T13:30:25;25.30;99.90
1806;DHT22;901;48.142;11.516;2022-09-09T13:33:04;25.30;99.90
1806;DHT22;901;48.142;11.516;2022-09-09T13:35:32;25.30;99.90
1806;DHT22;901;48.142;11.516;2022-09-09T13:38:07;25.50;99.90
1806;DHT22;901;48.142;11.516;2022-09-09T13:40:34;25.50;99.90
1806;DHT22;901;48.142;11.516;2022-09-09T13:43:02;25.40;99.90
1806;DHT22;901;48.142;11.516;2022-09-09T13:45:30;25.50;99.90
1806;DHT22;901;48.142;11.516;2022-09-09T13:48:08;25.50;99.90
1806;DHT22;901;48.142;11.516;2022-09-09T13:50:36;25.40;99.90
1806;DHT22;901;48.142;11.516;2022-09-09T13:53:04;25.30;99.90
1806;DHT22;901;48.142;11.516;2022-09-09T13:55:31;25.20;99.90
1806;DHT22;901;48.142;11.516;2022-09-09T13:57:59;25.00;99.90
1806;DHT22;901;48.142;11.516;2022-09-09T14:00:29;24.90;99.90
1806;DHT22;901;48.142;11.516;2022-09-09T14:02:57;24.80;99.90
1806;DHT22;901;48.142;11.516;2022-09-09T14:05:25;24.40;99.90
1806;DHT22;901;48.142;11.516;2022-09-09T14:07:53;24.30;99.90
1806;DHT22;901;48.142;11.516;2022-09-09T14:10:21;24.00;99.90
1806;DHT22;901;48.142;11.516;2022-09-09T14:12:48;23.90;99.90
1806;DHT22;901;48.142;11.516;2022-09-09T14:15:15;23.80;99.90
1806;DHT22;901;48.142;11.516;2022-09-09T14:17:42;23.60;99.90
1806;DHT22;901;48.142;11.516;2022-09-09T14:20:10;23.50;99.90
1806;DHT22;901;48.142;11.516;2022-09-09T14:22:41;23.50;99.90
1806;DHT22;901;48.142;11.516;2022-09-09T14:25:09;23.50;99.90
1806;DHT22;901;48.142;11.516;2022-09-09T14:27:38;23.40;99.90
1806;DHT22;901;48.142;11.516;2022-09-09T14:30:06;23.40;99.90
1806;DHT22;901;48.142;11.516;2022-09-09T14:32:33;23.40;99.90
1806;DHT22;901;48.142;11.516;2022-09-09T14:35:00;23.30;99.90
1806;DHT22;901;48.142;11.516;2022-09-09T14:37:27;23.30;99.90
1806;DHT22;901;48.142;11.516;2022-09-09T14:39:56;23.30;99.90
1806;DHT22;901;48.142;11.516;2022-09-09T14:42:23;23.30;99.90
1806;DHT22;901;48.142;11.516;2022-09-09T14:44:51;23.30;99.90
1806;DHT22;901;48.142;11.516;2022-09-09T14:47:18;23.10;99.90
1806;DHT22;901;48.142;11.516;2022-09-09T14:49:45;23.00;99.90
1806;DHT22;901;48.142;11.516;2022-09-09T14:52:15;22.80;99.90
1806;DHT22;901;48.142;11.516;2022-09-09T14:54:41;22.60;99.90
1806;DHT22;901;48.142;11.516;2022-09-09T14:57:08;22.40;99.90
1806;DHT22;901;48.142;11.516;2022-09-09T14:59:35;22.40;99.90
1806;DHT22;901;48.142;11.516;2022-09-09T15:02:03;22.20;99.90
1806;DHT22;901;48.142;11.516;2022-09-09T15:04:30;22.20;99.90
1806;DHT22;901;48.142;11.516;2022-09-09T15:06:57;22.00;99.90
1806;DHT22;901;48.142;11.516;2022-09-09T15:09:24;21.90;99.90
1806;DHT22;901;48.142;11.516;2022-09-09T15:11:51;22.00;99.90
1806;DHT22;901;48.142;11.516;2022-09-09T15:14:18;22.00;99.90
1806;DHT22;901;48.142;11.516;2022-09-09T15:16:44;21.90;99.90
1806;DHT22;901;48.142;11.516;2022-09-09T15:19:13;21.80;99.90
1806;DHT22;901;48.142;11.516;2022-09-09T15:21:40;21.90;99.90
1806;DHT22;901;48.142;11.516;2022-09-09T15:24:07;22.00;99.90
1806;DHT22;901;48.142;11.516;2022-09-09T15:26:34;22.00;99.90
1806;DHT22;901;48.142;11.516;2022-09-09T15:29:01;22.00;99.90
1806;DHT22;901;48.142;11.516;2022-09-09T15:31:30;22.20;99.90
1806;DHT22;901;48.142;11.516;2022-09-09T15:33:58;22.30;99.90
1806;DHT22;901;48.142;11.516;2022-09-09T15:36:30;22.10;99.90
1806;DHT22;901;48.142;11.516;2022-09-09T15:38:58;21.90;99.90
1806;DHT22;901;48.142;11.516;2022-09-09T15:41:25;21.90;99.90
1806;DHT22;901;48.142;11.516;2022-09-09T15:43:54;21.90;99.90
1806;DHT22;901;48.142;11.516;2022-09-09T15:46:24;21.90;99.90
1806;DHT22;901;48.142;11.516;2022-09-09T15:48:53;22.00;99.90
1806;DHT22;901;48.142;11.516;2022-09-09T15:51:21;22.10;99.90
1806;DHT22;901;48.142;11.516;2022-09-09T15:53:53;22.10;99.90
1806;DHT22;901;48.142;11.516;2022-09-09T15:56:21;21.90;99.90
1806;DHT22;901;48.142;11.516;2022-09-09T15:58:47;21.90;99.90
1806;DHT22;901;48.142;11.516;2022-09-09T16:01:15;21.70;99.90
1806;DHT22;901;48.142;11.516;2022-09-09T16:03:43;21.50;99.90
1806;DHT22;901;48.142;11.516;2022-09-09T16:06:12;21.30;99.90
1806;DHT22;901;48.142;11.516;2022-09-09T16:08:41;21.10;99.90
1806;DHT22;901;48.142;11.516;2022-09-09T16:11:11;21.10;99.90
1806;DHT22;901;48.142;11.516;2022-09-09T16:13:40;21.00;99.90
1806;DHT22;901;48.142;11.516;2022-09-09T16:16:08;20.90;99.90
1806;DHT22;901;48.142;11.516;2022-09-09T16:18:37;20.90;99.90
1806;DHT22;901;48.142;11.516;2022-09-09T16:21:04;21.00;99.90
1806;DHT22;901;48.142;11.516;2022-09-09T16:23:31;20.90;99.90
1806;DHT22;901;48.142;11.516;2022-09-09T16:25:59;21.00;99.90
1806;DHT22;901;48.142;11.516;2022-09-09T16:28:28;21.00;99.90
1806;DHT22;901;48.142;11.516;2022-09-09T16:30:55;21.20;99.90